Архив погоды в Новой Ладоге

Метеограмма Новая Ладога
Пятница, 22 Июня
Время местн. Темп Ветер Видим Явления Облачность нижн/средн/верх Атм. давл. Влжн Точка росы ВНГО R Сост. почвы Tg s
Напр Скр Прв ур.ст ур.м изм
15:00 +15.6° Ю 3 - более 50 км небо без изменений {ливневые осадки} преимущественно облачно 751 752 +1 82% +12.6° 1 км - - - -
12:00 +15.2° З 5 13 более 50 км небо без изменений {ливневые осадки} облачно 750 751 +2.3 82% +12.2° 1 км - - - -
09:00 +21.2° Ю 3 10 более 50 км - преимущественно облачно 748 749 -0.7 69% +15.3° 1 км 0 Влажная (без луж) +15° -
06:00 +18° Ю 5 10 50 км - преимущественно облачно 749 750 -2.1 79% +14.3° 1 км - - - -
03:00 +15.6° Ю,Ю-В 3 - 50 км - преимущественно облачно 751 752 -2.3 91% +14.2° 1.5 км - - - -
00:00 +16.1° Ю 3 - 50 км - преимущественно облачно 753 754 -1 91% +14.7° 1 км - - - -
Четверг, 21 Июня
Время местн. Темп Ветер Видим Явления Облачность нижн/средн/верх Атм. давл. Влжн Точка росы ВНГО R Сост. почвы Tg s
Напр Скр Прв ур.ст ур.м изм
21:00 +16.2° Ю 2 - 50 км небо без изменений {ливневые осадки} облачно 754 755 -0.3 91% +14.7° 1 км 0 - - -
18:00 +18.8° Ю-З 2 - 50 км - преимущественно облачно 755 755 -0.4 66% +12.3° 2 км - - - -
15:00 +17.2° В,С-В 3 - 50 км - преимущественно облачно 755 756 +0.1 69% +11.4° 1 км - - - -
12:00 +18.5° С 1 - 50 км - преимущественно облачно 755 756 0 58% +10° 1.5 км - - - -
09:00 +17.3° З,С-З 3 - 50 км - переменная облачность 755 756 +0.6 57% +8.8° 1.5 км 0 Влажная (без луж) - -
06:00 +13.6° З 3 - 50 км - переменная облачность 754 755 +0.3 78% +9.8° - - - - -
03:00 +13.4° З 3 - 50 км - облачно с прояснениями 754 755 -0.2 66% +7.1° 1 км - - - -
00:00 +13.9° З 4 13 более 50 км - облачно с прояснениями 754 755 +0.1 54% +4.8° 1 км - - - -
Среда, 20 Июня
Время местн. Темп Ветер Видим Явления Облачность нижн/средн/верх Атм. давл. Влжн Точка росы ВНГО R Сост. почвы Tg s
Напр Скр Прв ур.ст ур.м изм
21:00 +16.7° З 4 14 более 50 км - незначительная облачность 754 755 +0.7 52% +6.8° более 2.5 км 0 - - -
18:00 +19.6° З 7 16 более 50 км - ясно 753 754 +1 47% +8.1° более 2.5 км - - - -
15:00 +19.6° З 9 18 более 50 км - незначительная облачность 752 753 +0.6 49% +8.7° 1.5 км - - - -
12:00 +19.6° З 6 14 более 50 км - переменная облачность 752 753 +0.5 55% +10.3° 1 км - - - -
09:00 +16.7° З 5 11 более 50 км - переменная облачность 751 752 +0.1 71% +11.4° более 2.5 км 0 Сырая (есть малые или большие лужи) +9° -
06:00 +11.4° Ю-З 3 - более 50 км - переменная облачность 752 752 +0.1 90% +9.8° более 2.5 км - - - -
03:00 +10.6° З 3 - 50 км - переменная облачность 751 752 +0.8 87% +8.6° - - - - -
00:00 +11.6° З,Ю-З 2 - 50 км - переменная облачность 751 751 -0.2 92% +10.4° - - - - -
Вторник, 19 Июня
Время местн. Темп Ветер Видим Явления Облачность нижн/средн/верх Атм. давл. Влжн Точка росы ВНГО R Сост. почвы Tg s
Напр Скр Прв ур.ст ур.м изм
21:00 +13.5° З 4 10 10 км слабый ливневый дождь преимущественно облачно 751 752 -1.2 92% +12.3° 1 км 5 - - -
18:00 +19.2° Ю,Ю-З 3 - 50 км ливневый дождь облачно 752 753 -2.4 60% +11.3° 1 км - - - -
15:00 +21° Ю-З 3 - 50 км - преимущественно облачно 754 755 -1.6 48% +9.7° 1.5 км - - - -
12:00 +18.3° З,Ю-З 3 - 50 км - преимущественно облачно 756 757 -1.4 65% +11.6° 1.5 км - - - -